Time;durP1;ratioP1;P1;durP2;ratioP2;P2;SDS_P1;SDS_P2;PMS_P1;PMS_P2;Temp;Humidity;BMP_temperature;BMP_pressure;BME280_temperature;BME280_humidity;BME280_pressure;Samples;Min_cycle;Max_cycle;Signal;HPM_P1;HPM_P2
2023/03/30 00:00:35;;;;;;;10.25;4.45;;;;;;;12.23;100.00;-18357.19;4952463;28;20352;-83
2023/03/30 00:03:01;;;;;;;10.18;3.97;;;;;;;12.22;100.00;-18356.91;4950377;28;20039;-87
2023/03/30 00:05:30;;;;;;;10.43;4.50;;;;;;;12.27;100.00;-18358.28;4958536;28;20046;-87
2023/03/30 00:07:56;;;;;;;9.00;3.83;;;;;;;12.28;100.00;-18358.56;4952664;28;20125;-83
2023/03/30 00:10:21;;;;;;;9.13;3.70;;;;;;;12.30;100.00;-18358.97;4957161;28;20047;-85
2023/03/30 00:12:49;;;;;;;7.50;4.18;;;;;;;12.27;100.00;-18358.28;4949593;28;20528;-83
2023/03/30 00:15:17;;;;;;;7.73;3.70;;;;;;;12.27;100.00;-18358.16;4956141;28;20045;-83
2023/03/30 00:17:44;;;;;;;10.20;4.30;;;;;;;12.32;100.00;-18359.66;4951728;28;20129;-87
2023/03/30 00:20:11;;;;;;;7.15;3.83;;;;;;;12.34;100.00;-18360.19;4954393;28;20050;-87
2023/03/30 00:22:40;;;;;;;7.15;3.50;;;;;;;12.38;100.00;-18361.31;4953584;28;20130;-85
2023/03/30 00:25:09;;;;;;;7.30;3.90;;;;;;;12.33;100.00;-18359.94;4961642;28;20051;-84
2023/03/30 00:27:36;;;;;;;6.95;3.25;;;;;;;12.37;100.00;-18360.88;4951066;28;20055;-83
2023/03/30 00:30:09;;;;;;;10.32;3.90;;;;;;;12.40;100.00;-18361.84;4951956;28;20676;-84
2023/03/30 00:32:34;;;;;;;7.70;3.50;;;;;;;12.42;100.00;-18362.25;4955854;28;20049;-84
2023/03/30 00:35:00;;;;;;;7.20;3.53;;;;;;;12.47;100.00;-18363.63;4967608;28;20043;-84
2023/03/30 00:37:26;;;;;;;9.13;3.42;;;;;;;12.44;100.00;-18362.66;4949087;28;20419;-87
2023/03/30 00:39:52;;;;;;;7.53;3.45;;;;;;;12.44;100.00;-18362.66;4954690;28;20570;-83
2023/03/30 00:42:17;;;;;;;7.22;2.97;;;;;;;12.44;100.00;-18362.66;4952819;28;20031;-83
2023/03/30 00:45:13;;;;;;;6.07;2.92;;;;;;;12.53;100.00;-18365.28;4948775;28;20043;-84
2023/03/30 00:47:42;;;;;;;4.60;2.72;;;;;;;12.48;100.00;-18363.75;4962611;28;20075;-83
2023/03/30 00:50:08;;;;;;;5.55;3.38;;;;;;;12.48;100.00;-18363.75;4951594;28;20194;-84
2023/03/30 00:52:36;;;;;;;7.97;3.10;;;;;;;12.56;100.00;-18365.97;4964906;28;20082;-83
2023/03/30 00:55:03;;;;;;;7.43;3.25;;;;;;;12.51;100.00;-18364.59;4955008;28;20443;-83
2023/03/30 00:57:29;;;;;;;11.73;4.28;;;;;;;12.63;100.00;-18367.88;4953851;28;20506;-86
2023/03/30 00:59:56;;;;;;;6.22;2.88;;;;;;;12.68;100.00;-18369.25;4950253;28;20051;-86
2023/03/30 01:02:22;;;;;;;9.07;3.30;;;;;;;12.67;100.00;-18368.84;4950264;28;20039;-84
2023/03/30 01:04:52;;;;;;;7.28;3.53;;;;;;;12.64;100.00;-18368.28;4950217;28;20519;-85
2023/03/30 01:07:18;;;;;;;6.78;2.40;;;;;;;12.68;100.00;-18369.13;4955664;28;20177;-83
2023/03/30 01:09:44;;;;;;;6.38;2.85;;;;;;;12.76;100.00;-18371.44;4950015;28;20126;-87
2023/03/30 01:12:10;;;;;;;6.43;2.97;;;;;;;12.87;100.00;-18374.47;4952437;28;20098;-85
2023/03/30 01:14:36;;;;;;;6.93;3.40;;;;;;;12.92;100.00;-18375.56;4952604;28;20043;-85
2023/03/30 01:17:14;;;;;;;7.63;3.53;;;;;;;12.97;100.00;-18376.94;4951530;28;20043;-85
2023/03/30 01:19:55;;;;;;;10.23;3.63;;;;;;;13.01;100.00;-18378.16;4951639;28;20043;-83
2023/03/30 01:22:33;;;;;;;7.00;3.35;;;;;;;13.03;100.00;-18378.72;4967152;28;20047;-83
2023/03/30 01:25:32;;;;;;;9.00;3.22;;;;;;;13.10;100.00;-18380.50;4953300;28;20074;-83
2023/03/30 01:28:39;;;;;;;5.05;2.28;;;;;;;13.08;100.00;-18379.94;4954558;28;20511;-85
2023/03/30 01:31:24;;;;;;;4.93;2.30;;;;;;;13.03;100.00;-18378.72;4952894;28;20086;-89
2023/03/30 01:34:10;;;;;;;8.07;2.40;;;;;;;13.07;100.00;-18379.81;4952820;28;20139;-83
2023/03/30 01:36:40;;;;;;;4.88;2.67;;;;;;;13.08;100.00;-18380.09;4949800;28;20043;-83
2023/03/30 01:39:14;;;;;;;6.18;3.00;;;;;;;13.11;100.00;-18380.78;4956780;28;20043;-83
2023/03/30 01:41:58;;;;;;;9.30;3.88;;;;;;;13.16;100.00;-18382.13;4960712;28;20051;-90
2023/03/30 01:44:46;;;;;;;6.35;2.40;;;;;;;13.08;100.00;-18379.94;4981008;28;20054;-83
2023/03/30 01:47:24;;;;;;;7.18;2.50;;;;;;;13.04;100.00;-18378.84;4949905;28;20061;-83
2023/03/30 01:49:56;;;;;;;6.78;2.20;;;;;;;13.10;100.00;-18380.50;4951425;28;20058;-84
2023/03/30 01:52:27;;;;;;;6.40;2.45;;;;;;;13.03;100.00;-18378.56;4958327;28;20055;-84
2023/03/30 01:55:06;;;;;;;4.75;2.38;;;;;;;13.04;100.00;-18379.00;4954242;28;20034;-86
2023/03/30 01:57:56;;;;;;;5.20;2.38;;;;;;;13.00;100.00;-18377.75;4950035;28;20546;-85
2023/03/30 02:00:23;;;;;;;7.07;2.60;;;;;;;12.95;100.00;-18376.38;4978681;28;20052;-85
2023/03/30 02:02:54;;;;;;;4.35;2.20;;;;;;;12.92;100.00;-18375.69;4965505;28;20562;-87
2023/03/30 02:05:22;;;;;;;6.30;2.70;;;;;;;12.86;100.00;-18374.06;4953210;28;20145;-86
2023/03/30 02:07:54;;;;;;;6.72;2.40;;;;;;;12.84;100.00;-18373.63;4953896;28;20501;-84
2023/03/30 02:10:24;;;;;;;7.25;2.95;;;;;;;12.79;100.00;-18372.13;4959015;28;20490;-83
2023/03/30 02:12:51;;;;;;;7.03;2.58;;;;;;;12.82;100.00;-18373.09;4953070;28;20055;-83
2023/03/30 02:15:18;;;;;;;5.25;2.05;;;;;;;12.81;100.00;-18372.69;4948816;28;20054;-83
2023/03/30 02:17:46;;;;;;;5.00;2.33;;;;;;;12.79;100.00;-18372.28;4956624;28;20055;-84
2023/03/30 02:20:15;;;;;;;6.30;2.30;;;;;;;12.89;100.00;-18374.88;4954312;28;20473;-84
2023/03/30 02:22:41;;;;;;;10.60;3.35;;;;;;;12.87;100.00;-18374.31;4957684;28;20039;-85
2023/03/30 02:25:07;;;;;;;6.65;3.55;;;;;;;12.91;100.00;-18375.41;4957793;28;20038;-85
2023/03/30 02:27:33;;;;;;;5.38;2.45;;;;;;;12.97;100.00;-18376.94;4963927;28;20047;-84
2023/03/30 02:29:59;;;;;;;6.60;2.60;;;;;;;12.95;100.00;-18376.38;4953414;28;20043;-84
2023/03/30 02:32:27;;;;;;;4.90;2.25;;;;;;;13.00;100.00;-18377.75;4961244;28;20061;-84
2023/03/30 02:35:14;;;;;;;4.87;2.10;;;;;;;13.03;100.00;-18378.56;4958931;28;20111;-85
2023/03/30 02:37:56;;;;;;;4.22;2.25;;;;;;;13.02;100.00;-18378.31;4972170;28;20050;-85
2023/03/30 02:40:50;;;;;;;6.55;2.40;;;;;;;13.06;100.00;-18379.53;4962000;28;20139;-85
2023/03/30 02:43:32;;;;;;;5.65;2.70;;;;;;;13.06;100.00;-18379.41;4965262;28;20087;-85
2023/03/30 02:46:16;;;;;;;4.97;2.28;;;;;;;13.06;100.00;-18379.41;4955517;28;20042;-88
2023/03/30 02:49:13;;;;;;;7.20;2.80;;;;;;;13.08;100.00;-18380.09;4951663;28;20042;-86
2023/03/30 02:51:52;;;;;;;4.82;2.38;;;;;;;12.95;100.00;-18376.38;4963598;28;20060;-85
2023/03/30 02:54:32;;;;;;;5.55;2.25;;;;;;;12.96;100.00;-18376.66;4941856;28;20403;-85
2023/03/30 02:57:18;;;;;;;7.63;2.85;;;;;;;12.96;100.00;-18376.66;4952912;28;20050;-83
2023/03/30 02:59:53;;;;;;;5.30;2.53;;;;;;;13.01;100.00;-18378.03;4950817;28;20118;-86
2023/03/30 03:02:23;;;;;;;6.20;2.72;;;;;;;13.00;100.00;-18377.75;4963651;28;20109;-83
2023/03/30 03:04:51;;;;;;;7.68;2.75;;;;;;;12.98;100.00;-18377.22;4954329;28;20125;-86
2023/03/30 03:07:19;;;;;;;8.83;3.20;;;;;;;12.99;100.00;-18377.63;4948570;28;20118;-87
2023/03/30 03:09:44;;;;;;;7.80;2.70;;;;;;;13.04;100.00;-18379.00;4968945;28;20047;-84
2023/03/30 03:12:10;;;;;;;8.05;2.88;;;;;;;13.10;100.00;-18380.50;4957121;28;20046;-83
2023/03/30 03:14:36;;;;;;;11.45;2.97;;;;;;;13.10;100.00;-18380.63;4964554;28;20126;-84
2023/03/30 03:17:03;;;;;;;6.43;2.58;;;;;;;13.19;100.00;-18382.97;4955475;28;20125;-84
2023/03/30 03:19:29;;;;;;;8.05;2.67;;;;;;;13.20;100.00;-18383.22;4956503;28;20055;-84
2023/03/30 03:21:54;;;;;;;6.00;2.28;;;;;;;13.22;100.00;-18383.66;4953712;28;20055;-85
2023/03/30 03:24:20;;;;;;;7.28;2.00;;;;;;;13.24;100.00;-18384.34;4959136;28;20130;-86
2023/03/30 03:26:46;;;;;;;5.30;1.98;;;;;;;13.16;100.00;-18382.13;4953341;28;20039;-85
2023/03/30 03:29:11;;;;;;;8.23;1.95;;;;;;;13.23;100.00;-18384.06;4950288;28;20125;-83
2023/03/30 03:31:37;;;;;;;6.03;2.08;;;;;;;13.24;100.00;-18384.34;4947824;28;20043;-88
2023/03/30 03:34:02;;;;;;;5.20;2.45;;;;;;;13.26;100.00;-18384.88;4956391;28;20074;-82
2023/03/30 03:36:29;;;;;;;4.57;1.98;;;;;;;13.25;100.00;-18384.47;4958948;28;20035;-85
2023/03/30 03:38:55;;;;;;;7.32;2.20;;;;;;;13.25;100.00;-18384.63;4956273;28;20050;-83
2023/03/30 03:41:26;;;;;;;5.57;1.95;;;;;;;13.30;100.00;-18385.97;4958539;28;20410;-84
2023/03/30 03:43:52;;;;;;;5.72;2.33;;;;;;;13.29;100.00;-18385.72;4953299;28;20043;-83
2023/03/30 03:46:17;;;;;;;7.30;2.20;;;;;;;13.26;100.00;-18384.88;4962268;28;20049;-83
2023/03/30 03:48:42;;;;;;;4.43;1.90;;;;;;;13.26;100.00;-18384.75;4946297;28;20051;-83
2023/03/30 03:51:08;;;;;;;5.65;2.08;;;;;;;13.28;100.00;-18385.44;4950820;28;20143;-84
2023/03/30 03:53:34;;;;;;;5.35;1.90;;;;;;;13.27;100.00;-18385.16;4953814;28;20070;-85
2023/03/30 03:56:00;;;;;;;5.40;2.00;;;;;;;13.25;100.00;-18384.63;4953034;28;20035;-87
2023/03/30 03:58:26;;;;;;;7.55;2.40;;;;;;;13.27;100.00;-18385.03;4961152;28;20503;-87
2023/03/30 04:00:57;;;;;;;7.05;2.35;;;;;;;13.24;100.00;-18384.34;4957668;28;20045;-86
2023/03/30 04:03:22;;;;;;;10.00;3.10;;;;;;;13.23;100.00;-18384.06;4953663;28;20073;-84
2023/03/30 04:05:48;;;;;;;7.53;3.67;;;;;;;13.20;100.00;-18383.22;4958738;28;20075;-86
2023/03/30 04:08:16;;;;;;;9.07;3.63;;;;;;;13.15;100.00;-18381.88;4961668;28;20120;-83
2023/03/30 04:10:42;;;;;;;7.13;2.70;;;;;;;13.17;100.00;-18382.41;4961716;28;20060;-83
2023/03/30 04:13:07;;;;;;;6.82;2.78;;;;;;;13.15;100.00;-18381.72;4970731;28;20117;-83
2023/03/30 04:15:33;;;;;;;7.88;2.97;;;;;;;13.19;100.00;-18382.81;4959271;28;20190;-85
2023/03/30 04:17:58;;;;;;;6.60;3.05;;;;;;;13.18;100.00;-18382.56;4953724;28;20093;-82
2023/03/30 04:20:25;;;;;;;7.07;2.75;;;;;;;13.22;100.00;-18383.78;4954557;28;20055;-82
2023/03/30 04:22:52;;;;;;;7.00;2.72;;;;;;;13.22;100.00;-18383.66;4949900;28;20121;-84
2023/03/30 04:25:20;;;;;;;7.97;2.13;;;;;;;13.22;100.00;-18383.66;4954348;28;20049;-87
2023/03/30 04:27:50;;;;;;;5.57;2.40;;;;;;;13.25;100.00;-18384.63;4958384;28;20495;-84
2023/03/30 04:30:16;;;;;;;3.60;1.92;;;;;;;13.19;100.00;-18382.97;4954279;28;20043;-83
2023/03/30 04:32:43;;;;;;;5.72;2.28;;;;;;;13.26;100.00;-18384.88;4953032;28;20051;-86
2023/03/30 04:35:08;;;;;;;6.35;2.17;;;;;;;13.19;100.00;-18382.81;4951544;28;20396;-84
2023/03/30 04:37:34;;;;;;;3.80;1.98;;;;;;;13.23;100.00;-18384.06;4974285;28;20335;-85
2023/03/30 04:40:00;;;;;;;5.30;2.50;;;;;;;13.24;100.00;-18384.19;4959305;28;20134;-84
2023/03/30 04:42:33;;;;;;;8.50;2.80;;;;;;;13.24;100.00;-18384.34;4960841;28;20638;-87
2023/03/30 04:44:59;;;;;;;8.45;2.45;;;;;;;13.26;100.00;-18384.75;4954275;28;20047;-85
2023/03/30 04:47:26;;;;;;;5.85;2.60;;;;;;;13.24;100.00;-18384.34;4954096;28;20035;-83
2023/03/30 04:49:52;;;;;;;6.05;2.40;;;;;;;13.18;100.00;-18382.69;4942679;28;20051;-83
2023/03/30 04:52:18;;;;;;;7.57;2.50;;;;;;;13.13;100.00;-18381.31;4955774;28;20057;-83
2023/03/30 04:54:44;;;;;;;7.35;2.70;;;;;;;13.12;100.00;-18381.03;4958518;28;20039;-83
2023/03/30 04:57:10;;;;;;;7.63;2.15;;;;;;;13.00;100.00;-18377.88;4976315;28;20059;-82
2023/03/30 04:59:35;;;;;;;7.95;2.28;;;;;;;12.97;100.00;-18376.94;4951260;28;20206;-84
2023/03/30 05:02:02;;;;;;;6.05;2.53;;;;;;;12.95;100.00;-18376.53;4961895;28;20035;-83
2023/03/30 05:04:28;;;;;;;8.32;2.85;;;;;;;12.92;100.00;-18375.56;4951279;28;20170;-83
2023/03/30 05:06:54;;;;;;;6.00;2.33;;;;;;;12.95;100.00;-18376.53;4950999;28;20174;-83
2023/03/30 05:09:20;;;;;;;8.32;2.40;;;;;;;12.95;100.00;-18376.38;4952979;28;20047;-83
2023/03/30 05:11:45;;;;;;;6.10;2.72;;;;;;;13.00;100.00;-18377.75;4951291;28;20077;-83
2023/03/30 05:14:11;;;;;;;7.45;2.53;;;;;;;12.94;100.00;-18376.25;4952937;28;20050;-87
2023/03/30 05:16:36;;;;;;;7.20;2.65;;;;;;;12.93;100.00;-18375.84;4955013;28;20043;-82
2023/03/30 05:19:02;;;;;;;7.30;2.47;;;;;;;12.88;100.00;-18374.59;4953982;28;20043;-82
2023/03/30 05:21:30;;;;;;;4.25;2.10;;;;;;;12.83;100.00;-18373.22;4967020;28;20054;-84
2023/03/30 05:23:55;;;;;;;5.85;2.60;;;;;;;12.92;100.00;-18375.56;4956807;28;20054;-88
2023/03/30 05:26:20;;;;;;;7.32;2.53;;;;;;;12.87;100.00;-18374.31;4959749;28;20046;-82
2023/03/30 05:28:46;;;;;;;7.50;2.20;;;;;;;12.83;100.00;-18373.38;4970961;28;20474;-86
2023/03/30 05:31:12;;;;;;;5.00;2.00;;;;;;;12.96;100.00;-18376.78;4958013;28;20047;-86
2023/03/30 05:33:37;;;;;;;5.40;2.17;;;;;;;12.88;100.00;-18374.75;4958285;28;20035;-83
2023/03/30 05:36:03;;;;;;;5.50;2.20;;;;;;;12.99;100.00;-18377.47;4947095;28;20074;-83
2023/03/30 05:38:28;;;;;;;6.90;1.95;;;;;;;13.02;100.00;-18378.31;4952128;28;20039;-83
2023/03/30 05:40:54;;;;;;;8.85;2.20;;;;;;;13.01;100.00;-18378.03;4953038;28;20082;-87
2023/03/30 05:43:20;;;;;;;7.53;2.35;;;;;;;13.01;100.00;-18378.16;4955667;28;20050;-83
2023/03/30 05:45:45;;;;;;;5.55;2.20;;;;;;;12.96;100.00;-18376.66;4967926;28;20050;-83
2023/03/30 05:48:11;;;;;;;6.70;2.15;;;;;;;13.00;100.00;-18377.75;4954575;28;20053;-84
2023/03/30 05:50:36;;;;;;;5.68;2.00;;;;;;;12.95;100.00;-18376.53;4970644;28;20513;-85
2023/03/30 05:53:02;;;;;;;6.78;2.03;;;;;;;13.00;100.00;-18377.75;4960588;28;20035;-86
2023/03/30 05:55:27;;;;;;;4.45;1.77;;;;;;;13.10;100.00;-18380.50;4968505;28;20031;-83
2023/03/30 05:57:53;;;;;;;4.32;1.90;;;;;;;13.13;100.00;-18381.19;4969491;28;20051;-84
2023/03/30 06:00:21;;;;;;;9.98;2.85;;;;;;;13.08;100.00;-18379.94;4961693;28;20051;-86
2023/03/30 06:02:46;;;;;;;4.78;2.00;;;;;;;13.11;100.00;-18380.78;4957611;28;20063;-85
2023/03/30 06:05:12;;;;;;;6.20;2.88;;;;;;;13.04;100.00;-18379.00;4959031;28;20123;-83
2023/03/30 06:07:38;;;;;;;5.40;1.77;;;;;;;13.04;100.00;-18378.84;4954158;28;20078;-83
2023/03/30 06:10:05;;;;;;;5.35;2.03;;;;;;;13.01;100.00;-18378.16;4958405;28;20043;-83
2023/03/30 06:12:31;;;;;;;5.20;2.20;;;;;;;12.99;100.00;-18377.47;4960624;28;20057;-83
2023/03/30 06:14:57;;;;;;;7.70;2.67;;;;;;;12.92;100.00;-18375.56;4969439;28;20138;-83
2023/03/30 06:17:22;;;;;;;6.63;2.80;;;;;;;12.87;100.00;-18374.47;4959724;28;20130;-84
2023/03/30 06:19:47;;;;;;;4.43;2.33;;;;;;;12.80;100.00;-18372.53;4966661;28;20047;-87
2023/03/30 06:22:13;;;;;;;7.78;2.30;;;;;;;12.72;100.00;-18370.34;4954145;28;20047;-83
2023/03/30 06:24:38;;;;;;;8.02;2.55;;;;;;;12.63;100.00;-18368.03;4949301;28;20047;-83
2023/03/30 06:27:04;;;;;;;6.22;2.70;;;;;;;12.48;100.00;-18363.75;4955800;28;20481;-86
2023/03/30 06:29:29;;;;;;;6.00;2.83;;;;;;;12.41;100.00;-18362.00;4960549;28;20051;-83
2023/03/30 06:31:55;;;;;;;7.07;2.85;;;;;;;12.30;100.00;-18358.97;4957005;28;20997;-83
2023/03/30 06:34:20;;;;;;;5.82;2.33;;;;;;;12.20;100.00;-18356.38;4958349;28;20078;-83
2023/03/30 06:36:47;;;;;;;9.00;3.25;;;;;;;12.17;100.00;-18355.53;4965106;28;20139;-83
2023/03/30 06:39:13;;;;;;;6.88;3.05;;;;;;;12.06;100.00;-18352.53;4954441;28;20047;-83
2023/03/30 06:41:39;;;;;;;7.55;3.35;;;;;;;12.03;100.00;-18351.84;4956371;28;20062;-83
2023/03/30 06:44:05;;;;;;;8.32;3.90;;;;;;;12.05;100.00;-18352.25;4955368;28;20138;-84
2023/03/30 06:46:32;;;;;;;9.20;4.07;;;;;;;12.06;100.00;-18352.53;4954818;28;20061;-84
2023/03/30 06:48:57;;;;;;;9.32;4.20;;;;;;;11.99;100.00;-18350.59;4953355;28;20455;-83
2023/03/30 06:51:23;;;;;;;7.20;3.72;;;;;;;11.93;100.00;-18349.09;4949437;28;20074;-83
2023/03/30 06:53:48;;;;;;;8.38;3.75;;;;;;;11.87;100.00;-18347.56;4958263;28;20050;-83
2023/03/30 06:56:14;;;;;;;9.13;3.60;;;;;;;11.79;100.00;-18345.38;4953295;28;20047;-84
2023/03/30 06:58:40;;;;;;;5.63;3.15;;;;;;;11.84;100.00;-18346.63;4954241;28;20051;-84
2023/03/30 07:01:13;;;;;;;9.98;3.40;;;;;;;11.80;100.00;-18345.53;4954244;28;20043;-83
2023/03/30 07:03:40;;;;;;;8.70;3.67;;;;;;;11.84;100.00;-18346.63;4952134;28;20074;-83
2023/03/30 07:06:06;;;;;;;6.03;2.92;;;;;;;11.92;100.00;-18348.94;4955977;28;20053;-84
2023/03/30 07:08:33;;;;;;;7.35;3.88;;;;;;;11.95;100.00;-18349.63;4949242;28;20063;-83
2023/03/30 07:10:58;;;;;;;7.50;3.10;;;;;;;11.98;100.00;-18350.31;4973830;28;20515;-83
2023/03/30 07:13:24;;;;;;;10.00;3.35;;;;;;;12.05;100.00;-18352.38;4957768;28;20308;-83
2023/03/30 07:15:51;;;;;;;8.40;3.45;;;;;;;12.07;100.00;-18352.78;4955494;28;20039;-83
2023/03/30 07:18:16;;;;;;;7.32;3.40;;;;;;;12.08;100.00;-18353.06;4950150;28;20051;-83
2023/03/30 07:20:43;;;;;;;7.70;3.55;;;;;;;12.15;100.00;-18355.00;4951269;28;20407;-83
2023/03/30 07:23:10;;;;;;;10.15;3.45;;;;;;;12.14;100.00;-18354.72;4952020;28;20043;-83
2023/03/30 07:25:36;;;;;;;10.93;3.58;;;;;;;12.16;100.00;-18355.25;4957266;28;20052;-83
2023/03/30 07:28:05;;;;;;;8.98;3.60;;;;;;;12.26;100.00;-18358.00;4952889;28;20047;-88
2023/03/30 07:30:31;;;;;;;6.43;2.90;;;;;;;12.32;100.00;-18359.53;4947618;28;20035;-88
2023/03/30 07:32:56;;;;;;;9.02;3.10;;;;;;;12.39;100.00;-18361.56;4956955;28;20047;-87
2023/03/30 07:35:22;;;;;;;9.65;3.10;;;;;;;12.44;100.00;-18362.66;4950373;28;20105;-86
2023/03/30 07:37:47;;;;;;;9.00;3.47;;;;;;;12.47;100.00;-18363.63;4952404;28;20094;-83
2023/03/30 07:40:13;;;;;;;8.18;3.45;;;;;;;12.51;100.00;-18364.59;4951095;28;20050;-84
2023/03/30 07:42:39;;;;;;;7.55;2.65;;;;;;;12.45;100.00;-18362.94;4953886;28;20106;-85
2023/03/30 07:45:04;;;;;;;6.75;3.13;;;;;;;12.46;100.00;-18363.22;4952861;28;20110;-83
2023/03/30 07:47:30;;;;;;;7.93;3.10;;;;;;;12.48;100.00;-18363.75;4955165;28;20047;-87
2023/03/30 07:49:55;;;;;;;9.52;3.58;;;;;;;12.47;100.00;-18363.50;4951584;28;20140;-83
2023/03/30 07:52:21;;;;;;;8.55;2.88;;;;;;;12.44;100.00;-18362.66;4963521;28;20043;-86
2023/03/30 07:54:46;;;;;;;9.65;3.53;;;;;;;12.47;100.00;-18363.50;4965699;28;20086;-86
2023/03/30 07:57:12;;;;;;;8.23;3.05;;;;;;;12.50;100.00;-18364.31;4951448;28;20039;-84
2023/03/30 07:59:37;;;;;;;6.47;3.17;;;;;;;12.45;100.00;-18362.94;4969117;28;20382;-85
2023/03/30 08:02:04;;;;;;;7.93;3.17;;;;;;;12.53;100.00;-18365.28;4965106;28;20593;-83
2023/03/30 08:04:30;;;;;;;7.57;2.83;;;;;;;12.56;100.00;-18365.97;4960917;28;20043;-85
2023/03/30 08:06:55;;;;;;;9.90;3.20;;;;;;;12.65;100.00;-18368.44;4957730;28;20101;-83
2023/03/30 08:09:21;;;;;;;10.32;3.30;;;;;;;12.68;100.00;-18369.13;4973323;28;20042;-83
2023/03/30 08:11:46;;;;;;;7.63;3.15;;;;;;;12.67;100.00;-18368.84;4966537;28;20046;-83
2023/03/30 08:14:12;;;;;;;10.48;3.15;;;;;;;12.68;100.00;-18369.25;4960706;28;20051;-86
2023/03/30 08:16:37;;;;;;;7.30;2.67;;;;;;;12.69;100.00;-18369.38;4965922;28;20050;-83
2023/03/30 08:19:03;;;;;;;8.70;2.92;;;;;;;12.65;100.00;-18368.44;4965135;28;20039;-86
2023/03/30 08:21:28;;;;;;;10.73;3.35;;;;;;;12.73;100.00;-18370.63;4958170;28;20051;-83
2023/03/30 08:23:58;;;;;;;10.15;3.30;;;;;;;12.71;100.00;-18370.06;4950742;28;20074;-83
2023/03/30 08:26:27;;;;;;;9.15;3.17;;;;;;;12.71;100.00;-18370.06;4962897;28;20101;-85
2023/03/30 08:28:52;;;;;;;;;;;;;;;12.72;100.00;-18370.34;4970718;28;20451;-84
2023/03/30 08:31:19;;;;;;;12.23;3.63;;;;;;;12.61;100.00;-18367.47;4971227;28;20000;-82
2023/03/30 08:33:45;;;;;;;7.93;3.47;;;;;;;12.65;100.00;-18368.44;4966604;28;20173;-82
2023/03/30 08:36:13;;;;;;;8.40;3.78;;;;;;;12.77;100.00;-18371.72;4947770;28;20126;-85
2023/03/30 08:38:40;;;;;;;10.90;2.87;;;;;;;12.95;100.00;-18376.53;4952621;28;20055;-84
2023/03/30 08:41:23;;;;;;;9.52;3.30;;;;;;;13.12;100.00;-18381.03;4961369;28;20046;-82
2023/03/30 08:43:57;;;;;;;11.50;3.70;;;;;;;13.12;100.00;-18381.03;4955973;28;20039;-82
2023/03/30 08:46:23;;;;;;;8.85;2.80;;;;;;;13.17;100.00;-18382.41;4952317;28;20086;-82
2023/03/30 08:48:51;;;;;;;10.50;3.05;;;;;;;13.24;100.00;-18384.19;4947941;28;20138;-82
2023/03/30 08:51:21;;;;;;;8.90;2.42;;;;;;;13.20;100.00;-18383.09;4955544;28;20043;-82
2023/03/30 08:53:54;;;;;;;7.32;2.78;;;;;;;13.16;100.00;-18382.13;4949049;28;20406;-82
2023/03/30 08:56:33;;;;;;;7.63;2.40;;;;;;;13.17;100.00;-18382.41;4979457;28;20054;-80
2023/03/30 08:59:26;;;;;;;10.32;2.67;;;;;;;13.35;100.00;-18387.06;4961735;28;20125;-81
2023/03/30 09:02:38;;;;;;;10.90;2.83;;;;;;;13.34;100.00;-18386.81;4963854;28;20035;-81
2023/03/30 09:05:46;;;;;;;16.00;2.72;;;;;;;13.32;100.00;-18386.53;4967782;28;20043;-81
2023/03/30 09:08:26;;;;;;;7.70;2.33;;;;;;;13.38;100.00;-18388.03;4962390;28;20051;-82
2023/03/30 09:11:10;;;;;;;9.88;2.65;;;;;;;13.40;100.00;-18388.59;4954589;28;20054;-82
2023/03/30 09:13:38;;;;;;;10.63;2.70;;;;;;;13.36;100.00;-18387.34;4967104;28;20047;-82
2023/03/30 09:16:25;;;;;;;10.15;2.97;;;;;;;13.38;100.00;-18388.03;4962601;28;20721;-82
2023/03/30 09:18:56;;;;;;;8.88;2.20;;;;;;;13.31;100.00;-18386.25;4946152;28;20062;-82
2023/03/30 09:21:27;;;;;;;9.35;2.83;;;;;;;13.30;100.00;-18385.84;4950883;28;20038;-82
2023/03/30 09:23:56;;;;;;;11.35;2.72;;;;;;;13.32;100.00;-18386.53;4947615;28;20046;-82
2023/03/30 09:26:46;;;;;;;9.02;2.97;;;;;;;13.28;100.00;-18385.44;4948653;28;20138;-82
2023/03/30 09:29:29;;;;;;;8.88;2.40;;;;;;;13.18;100.00;-18382.69;4967567;28;20031;-82
2023/03/30 09:32:30;;;;;;;11.13;2.65;;;;;;;13.25;100.00;-18384.63;4956857;28;20098;-82
2023/03/30 09:35:03;;;;;;;11.27;3.13;;;;;;;13.23;100.00;-18383.91;4958895;28;20047;-81
2023/03/30 09:37:30;;;;;;;12.50;3.90;;;;;;;13.21;100.00;-18383.50;4952176;28;20035;-82
2023/03/30 09:39:57;;;;;;;12.25;2.85;;;;;;;13.24;100.00;-18384.34;4959300;28;20050;-81
2023/03/30 09:42:46;;;;;;;11.80;3.25;;;;;;;13.35;100.00;-18387.06;4968003;28;20094;-81
2023/03/30 09:45:32;;;;;;;10.55;3.40;;;;;;;13.41;100.00;-18388.72;4954017;28;20042;-82
2023/03/30 09:48:03;;;;;;;9.90;3.28;;;;;;;13.47;100.00;-18390.50;4968834;28;20117;-82
2023/03/30 09:50:29;;;;;;;16.45;3.67;;;;;;;13.44;100.00;-18389.69;4960353;28;20043;-81
2023/03/30 09:53:00;;;;;;;14.77;3.47;;;;;;;13.46;100.00;-18390.09;4958935;28;20053;-82
2023/03/30 09:55:28;;;;;;;10.73;3.13;;;;;;;13.48;100.00;-18390.78;4976104;28;20055;-81
2023/03/30 09:58:10;;;;;;;10.80;3.20;;;;;;;13.52;100.00;-18391.75;4971333;28;20679;-81
2023/03/30 10:00:36;;;;;;;11.32;3.30;;;;;;;13.41;100.00;-18388.72;4970474;28;20044;-81
2023/03/30 10:03:05;;;;;;;11.20;3.30;;;;;;;13.43;100.00;-18389.41;4963230;28;20043;-82
2023/03/30 10:05:33;;;;;;;8.38;3.22;;;;;;;13.53;100.00;-18392.00;4957612;28;20106;-82
2023/03/30 10:08:18;;;;;;;9.18;3.25;;;;;;;13.54;100.00;-18392.28;4957852;28;20031;-81
2023/03/30 10:10:43;;;;;;;13.75;3.00;;;;;;;13.59;100.00;-18393.66;4965711;28;20065;-82
2023/03/30 10:13:18;;;;;;;12.00;3.85;;;;;;;13.61;100.00;-18394.22;4955539;28;20134;-83
2023/03/30 10:15:50;;;;;;;12.50;3.50;;;;;;;13.67;100.00;-18395.72;4953748;28;20483;-82
2023/03/30 10:18:30;;;;;;;9.75;3.25;;;;;;;13.67;100.00;-18395.84;4949340;28;20062;-82
2023/03/30 10:21:21;;;;;;;11.73;3.35;;;;;;;13.71;100.00;-18396.81;4949227;28;20507;-81
2023/03/30 10:24:02;;;;;;;11.73;3.45;;;;;;;13.69;100.00;-18396.41;4953432;28;20043;-82
2023/03/30 10:26:29;;;;;;;13.32;3.28;;;;;;;13.65;100.00;-18395.31;4968851;28;20074;-81
2023/03/30 10:29:06;;;;;;;11.25;3.15;;;;;;;13.74;100.00;-18397.63;4951805;28;20049;-82
2023/03/30 10:31:37;;;;;;;9.05;2.70;;;;;;;13.70;100.00;-18396.66;4957631;28;20049;-81
2023/03/30 10:34:05;;;;;;;11.13;3.00;;;;;;;13.68;100.00;-18396.13;4952974;28;20051;-82
2023/03/30 10:36:37;;;;;;;11.47;2.47;;;;;;;13.63;100.00;-18394.63;4974700;28;20057;-82
2023/03/30 10:39:10;;;;;;;12.70;3.30;;;;;;;13.71;100.00;-18396.94;4955113;28;20137;-82
2023/03/30 10:41:38;;;;;;;9.80;2.70;;;;;;;13.77;100.00;-18398.59;4952096;28;21293;-82
2023/03/30 10:44:12;;;;;;;10.90;3.40;;;;;;;13.82;100.00;-18399.81;4952633;28;20047;-81
2023/03/30 10:46:38;;;;;;;13.05;2.80;;;;;;;14.03;100.00;-18405.31;4971698;28;20035;-83
2023/03/30 10:49:09;;;;;;;14.90;3.28;;;;;;;14.06;100.00;-18406.13;4956156;28;20243;-82
2023/03/30 10:51:40;;;;;;;8.68;2.83;;;;;;;14.22;100.00;-18410.63;4957135;28;20126;-81
2023/03/30 10:54:09;;;;;;;17.50;3.42;;;;;;;14.40;100.00;-18415.44;4955288;28;20427;-82
2023/03/30 10:56:37;;;;;;;;;;;;;;;14.43;100.00;-18416.25;4962579;28;20048;-82
2023/03/30 10:59:35;;;;;;;12.67;3.20;;;;;;;14.37;100.00;-18414.63;4963295;28;19918;-82
2023/03/30 11:02:25;;;;;;;11.05;2.40;;;;;;;14.38;100.00;-18414.88;4959773;28;20047;-82
2023/03/30 11:05:06;;;;;;;10.10;2.17;;;;;;;14.27;100.00;-18411.88;4962830;28;20058;-82
2023/03/30 11:07:40;;;;;;;12.25;2.63;;;;;;;14.34;100.00;-18413.66;4970840;28;20510;-82
2023/03/30 11:10:21;;;;;;;11.65;2.45;;;;;;;14.55;100.00;-18419.41;4969377;28;20106;-81
2023/03/30 11:12:57;;;;;;;10.93;2.40;;;;;;;14.51;100.00;-18418.31;4973582;28;20043;-82
2023/03/30 11:15:32;;;;;;;11.75;2.40;;;;;;;14.43;100.00;-18416.13;4967801;28;20107;-82
2023/03/30 11:18:03;;;;;;;11.75;2.45;;;;;;;14.34;100.00;-18413.66;4962785;28;20066;-84
2023/03/30 11:20:55;;;;;;;14.55;3.08;;;;;;;14.29;100.00;-18412.28;4969230;28;20124;-82
2023/03/30 11:23:33;;;;;;;15.00;2.95;;;;;;;14.23;100.00;-18410.91;4973818;28;20698;-83
2023/03/30 11:26:07;;;;;;;9.15;2.25;;;;;;;14.17;100.00;-18409.13;4957907;28;20481;-83
2023/03/30 11:28:41;;;;;;;13.73;2.65;;;;;;;14.15;100.00;-18408.72;4948245;28;20043;-83
2023/03/30 11:31:25;;;;;;;12.18;2.80;;;;;;;14.22;100.00;-18410.63;4950644;28;20478;-82